createdAt,value
2018-05-09T00:01:13.987Z,19.00
2018-05-09T00:03:43.015Z,19.00
2018-05-09T00:06:11.298Z,18.90
2018-05-09T00:08:39.528Z,18.90
2018-05-09T00:11:08.558Z,18.90
2018-05-09T00:13:36.830Z,18.90
2018-05-09T00:16:05.097Z,18.90
2018-05-09T00:18:33.352Z,18.90
2018-05-09T00:21:02.372Z,18.60
2018-05-09T00:23:30.665Z,18.60
2018-05-09T00:25:58.929Z,18.60
2018-05-09T00:28:27.183Z,18.60
2018-05-09T00:30:55.442Z,18.50
2018-05-09T00:33:24.476Z,18.30
2018-05-09T00:35:52.726Z,18.30
2018-05-09T00:38:20.993Z,18.20
2018-05-09T00:40:50.027Z,18.30
2018-05-09T00:43:18.294Z,18.30
2018-05-09T00:45:46.545Z,18.00
2018-05-09T00:48:15.559Z,17.60
2018-05-09T00:50:43.874Z,17.60
2018-05-09T00:53:12.096Z,17.50
2018-05-09T00:55:40.406Z,17.50
2018-05-09T00:58:08.670Z,17.60
2018-05-09T01:00:36.958Z,17.70
2018-05-09T01:03:05.245Z,17.60
2018-05-09T01:05:33.514Z,17.80
2018-05-09T01:08:01.856Z,18.00
2018-05-09T01:10:30.048Z,18.00
2018-05-09T01:12:58.300Z,18.00
2018-05-09T01:15:27.400Z,17.80
2018-05-09T01:17:56.422Z,17.80
2018-05-09T01:20:24.689Z,17.80
2018-05-09T01:22:52.981Z,17.90
2018-05-09T01:25:21.242Z,17.50
2018-05-09T01:27:49.503Z,17.50
2018-05-09T01:30:17.802Z,17.60
2018-05-09T01:32:46.066Z,17.40
2018-05-09T01:35:14.318Z,17.30
2018-05-09T01:37:43.502Z,17.50
2018-05-09T01:40:11.759Z,17.40
2018-05-09T01:42:40.027Z,17.50
2018-05-09T01:45:08.278Z,17.40
2018-05-09T01:47:36.554Z,17.50
2018-05-09T01:50:04.826Z,17.60
2018-05-09T01:52:33.091Z,17.70
2018-05-09T01:55:01.384Z,17.70
2018-05-09T01:57:31.104Z,17.60
2018-05-09T01:59:59.350Z,17.60
2018-05-09T02:02:27.632Z,17.60
2018-05-09T02:04:55.880Z,17.50
2018-05-09T02:07:24.914Z,17.50
2018-05-09T02:09:53.186Z,17.50
2018-05-09T02:12:21.414Z,17.40
2018-05-09T02:14:51.991Z,17.40
2018-05-09T02:17:20.704Z,17.20
2018-05-09T02:19:49.060Z,17.30
2018-05-09T02:22:17.310Z,17.40
2018-05-09T02:24:46.480Z,17.40
2018-05-09T02:27:14.730Z,17.40
2018-05-09T02:29:42.989Z,17.30
2018-05-09T02:32:11.255Z,17.20
2018-05-09T02:34:39.524Z,17.10
2018-05-09T02:37:07.807Z,17.10
2018-05-09T02:39:36.050Z,17.10
2018-05-09T02:42:05.099Z,16.70
2018-05-09T02:44:33.344Z,16.70
2018-05-09T02:47:01.619Z,16.60
2018-05-09T02:49:29.868Z,16.50
2018-05-09T02:51:58.968Z,16.80
2018-05-09T02:54:27.985Z,16.90
2018-05-09T02:56:56.254Z,16.90
2018-05-09T02:59:24.502Z,17.00
2018-05-09T03:01:52.758Z,17.10
2018-05-09T03:04:21.056Z,17.00
2018-05-09T03:06:49.316Z,16.70
2018-05-09T03:09:17.571Z,16.70
2018-05-09T03:11:46.494Z,16.70
2018-05-09T03:14:14.884Z,16.70
2018-05-09T03:16:43.117Z,16.70
2018-05-09T03:19:11.373Z,16.60
2018-05-09T03:21:39.654Z,16.60
2018-05-09T03:24:07.882Z,16.70
2018-05-09T03:26:36.174Z,16.80
2018-05-09T03:29:05.179Z,16.90
2018-05-09T03:31:33.447Z,16.90
2018-05-09T03:34:02.451Z,17.00
2018-05-09T03:36:30.728Z,17.00
2018-05-09T03:38:58.970Z,17.00
2018-05-09T03:41:27.288Z,17.00
2018-05-09T03:43:55.522Z,16.90
2018-05-09T03:46:23.792Z,16.90
2018-05-09T03:48:52.881Z,16.90
2018-05-09T03:51:21.142Z,16.90
2018-05-09T03:53:49.397Z,16.90
2018-05-09T03:56:17.666Z,16.80
2018-05-09T03:58:45.924Z,16.80
2018-05-09T04:01:14.954Z,16.90
2018-05-09T04:04:08.807Z,16.90
2018-05-09T04:06:48.903Z,16.80
2018-05-09T04:09:29.074Z,16.80
2018-05-09T04:11:57.278Z,16.80
2018-05-09T04:14:26.294Z,16.70
2018-05-09T04:16:54.576Z,16.70
2018-05-09T04:19:22.867Z,16.70
2018-05-09T04:21:51.148Z,16.70
2018-05-09T04:24:19.412Z,16.70
2018-05-09T04:26:47.677Z,16.60
2018-05-09T04:29:15.943Z,16.60
2018-05-09T04:31:44.192Z,16.50
2018-05-09T04:34:13.235Z,16.10
2018-05-09T04:36:41.498Z,16.10
2018-05-09T04:39:09.770Z,16.00
2018-05-09T04:41:38.039Z,15.90
2018-05-09T04:44:06.315Z,15.80
2018-05-09T04:46:34.555Z,16.00
2018-05-09T04:49:02.840Z,15.90
2018-05-09T04:51:31.882Z,16.10
2018-05-09T04:54:00.135Z,16.10
2018-05-09T04:56:28.455Z,16.10
2018-05-09T04:58:56.696Z,16.30
2018-05-09T05:01:24.947Z,16.40
2018-05-09T05:03:54.055Z,16.70
2018-05-09T05:06:22.327Z,16.70
2018-05-09T05:08:51.394Z,16.60
2018-05-09T05:11:19.660Z,16.60
2018-05-09T05:13:47.936Z,16.70
2018-05-09T05:16:16.232Z,16.60
2018-05-09T05:18:44.460Z,16.60
2018-05-09T05:21:12.722Z,16.70
2018-05-09T05:23:40.970Z,16.90
2018-05-09T05:26:10.049Z,17.30
2018-05-09T05:28:38.369Z,17.30
2018-05-09T05:31:06.630Z,17.30
2018-05-09T05:33:34.918Z,17.40
2018-05-09T05:36:03.186Z,17.40
2018-05-09T05:38:31.433Z,17.40
2018-05-09T05:41:00.454Z,17.30
2018-05-09T05:43:28.738Z,17.30
2018-05-09T05:45:57.081Z,17.30
2018-05-09T05:48:25.351Z,17.40
2018-05-09T05:50:53.589Z,17.40
2018-05-09T05:53:21.852Z,17.40
2018-05-09T05:55:50.211Z,17.40
2018-05-09T05:58:18.474Z,17.30
2018-05-09T06:00:47.530Z,17.40
2018-05-09T06:03:15.787Z,17.40
2018-05-09T06:05:44.131Z,17.40
2018-05-09T06:08:13.142Z,17.40
2018-05-09T06:10:41.394Z,17.40
2018-05-09T06:13:10.486Z,17.50
2018-05-09T06:15:39.526Z,17.60
2018-05-09T06:18:07.782Z,17.50
2018-05-09T06:20:36.058Z,17.60
2018-05-09T06:23:04.310Z,17.80
2018-05-09T06:25:33.368Z,18.60
2018-05-09T06:28:01.634Z,18.60
2018-05-09T06:30:29.894Z,19.90
2018-05-09T06:32:58.527Z,21.80
2018-05-09T06:35:26.921Z,22.60
2018-05-09T06:37:55.989Z,22.80
2018-05-09T06:40:25.014Z,23.30
2018-05-09T06:42:54.041Z,25.20
2018-05-09T06:45:22.292Z,25.20
2018-05-09T06:47:51.490Z,28.20
2018-05-09T06:50:19.722Z,28.10
2018-05-09T06:52:48.007Z,29.60
2018-05-09T06:55:16.255Z,29.90
2018-05-09T06:57:44.537Z,30.50
2018-05-09T07:00:14.484Z,30.60
2018-05-09T07:02:42.917Z,31.00
2018-05-09T07:05:11.210Z,31.50
2018-05-09T07:07:39.526Z,33.10
2018-05-09T07:10:08.565Z,33.20
2018-05-09T07:12:36.872Z,33.10
2018-05-09T07:15:05.109Z,33.20
2018-05-09T07:17:33.462Z,33.90
2018-05-09T07:20:01.910Z,35.00
2018-05-09T07:22:30.168Z,34.40
2018-05-09T07:24:58.449Z,35.70
2018-05-09T07:27:26.714Z,35.20
2018-05-09T07:29:55.730Z,35.00
2018-05-09T07:32:24.016Z,35.00
2018-05-09T07:34:52.273Z,34.60
2018-05-09T07:37:20.592Z,34.00
2018-05-09T07:39:49.632Z,35.70
2018-05-09T07:42:17.941Z,35.60
2018-05-09T07:44:46.171Z,35.10
2018-05-09T07:47:14.454Z,35.60
2018-05-09T07:49:42.718Z,34.40
2018-05-09T07:52:10.996Z,32.60
2018-05-09T07:54:39.253Z,31.50
2018-05-09T07:57:07.547Z,31.10
2018-05-09T07:59:35.842Z,31.50
2018-05-09T08:02:04.573Z,32.30
2018-05-09T08:04:33.613Z,35.10
2018-05-09T08:07:01.886Z,35.10
2018-05-09T08:09:30.152Z,35.50
2018-05-09T08:11:58.425Z,35.70
2018-05-09T08:14:26.683Z,35.60
2018-05-09T08:16:54.976Z,35.90
2018-05-09T08:19:23.280Z,35.70
2018-05-09T08:21:51.543Z,35.70
2018-05-09T08:24:19.796Z,34.60
2018-05-09T08:26:48.050Z,34.50
2018-05-09T08:29:17.103Z,35.20
2018-05-09T08:31:45.332Z,35.20
2018-05-09T08:34:14.407Z,35.40
2018-05-09T08:36:42.780Z,35.40
2018-05-09T08:39:11.077Z,34.70
2018-05-09T08:41:39.380Z,34.10
2018-05-09T08:44:07.731Z,34.10
2018-05-09T08:46:36.002Z,33.90
2018-05-09T08:49:04.268Z,33.30
2018-05-09T08:51:32.535Z,32.40
2018-05-09T08:54:00.875Z,30.00
2018-05-09T08:56:29.150Z,28.10
2018-05-09T08:58:57.420Z,26.90
2018-05-09T09:01:25.671Z,25.90
2018-05-09T09:03:54.765Z,25.00
2018-05-09T09:06:23.801Z,24.50
2018-05-09T09:08:52.147Z,24.50
2018-05-09T09:11:20.332Z,24.40
2018-05-09T09:13:48.600Z,24.90
2018-05-09T09:16:16.862Z,25.40
2018-05-09T09:18:46.018Z,25.70
2018-05-09T09:21:14.152Z,25.70
2018-05-09T09:23:42.422Z,25.00
2018-05-09T09:26:10.721Z,24.70
2018-05-09T09:28:39.014Z,24.80
2018-05-09T09:31:07.369Z,24.90
2018-05-09T09:33:35.636Z,24.70
2018-05-09T09:36:03.913Z,24.60
2018-05-09T09:38:32.186Z,24.70
2018-05-09T09:41:00.617Z,24.30
2018-05-09T09:43:30.147Z,24.30
2018-05-09T09:45:58.429Z,24.40
2018-05-09T09:48:27.445Z,24.40
2018-05-09T09:50:55.777Z,24.40
2018-05-09T09:53:24.038Z,24.40
2018-05-09T09:55:53.072Z,24.30
2018-05-09T09:58:22.111Z,24.30
2018-05-09T10:00:50.378Z,24.30
2018-05-09T10:03:18.787Z,24.40
2018-05-09T10:05:47.073Z,24.40
2018-05-09T10:08:15.337Z,24.70
2018-05-09T10:10:43.594Z,25.10
2018-05-09T10:13:11.870Z,25.40
2018-05-09T10:15:40.141Z,25.30
2018-05-09T10:18:08.483Z,24.60
2018-05-09T10:20:36.720Z,24.10
2018-05-09T10:23:05.011Z,24.00
2018-05-09T10:25:33.306Z,24.00
2018-05-09T10:28:01.566Z,24.00
2018-05-09T10:30:29.889Z,23.90
2018-05-09T10:32:58.913Z,23.70
2018-05-09T10:35:27.201Z,23.70
2018-05-09T10:37:55.453Z,23.80
2018-05-09T10:40:23.706Z,23.80
2018-05-09T10:42:51.970Z,23.90
2018-05-09T10:45:20.311Z,23.80
2018-05-09T10:47:49.350Z,23.90
2018-05-09T10:50:17.586Z,23.90
2018-05-09T10:52:45.881Z,23.80
2018-05-09T10:55:14.122Z,23.60
2018-05-09T10:57:42.417Z,23.60
2018-05-09T11:00:10.680Z,23.60
2018-05-09T11:02:38.949Z,23.70
2018-05-09T11:05:07.306Z,23.50
2018-05-09T11:07:35.533Z,23.90
2018-05-09T11:10:03.797Z,24.30
2018-05-09T11:12:32.070Z,24.70
2018-05-09T11:15:00.424Z,24.70
2018-05-09T11:17:28.700Z,24.50
2018-05-09T11:19:56.979Z,24.50
2018-05-09T11:22:25.247Z,24.60
2018-05-09T11:24:53.539Z,24.80
2018-05-09T11:27:21.811Z,24.90
2018-05-09T11:29:50.082Z,24.50
2018-05-09T11:32:18.338Z,24.30
2018-05-09T11:34:46.611Z,24.20
2018-05-09T11:37:14.870Z,24.40
2018-05-09T11:39:43.139Z,24.70
2018-05-09T11:42:12.194Z,25.00
2018-05-09T11:44:40.471Z,25.00
2018-05-09T11:47:08.739Z,25.00
2018-05-09T11:49:37.009Z,24.90
2018-05-09T11:52:05.333Z,24.80
2018-05-09T11:54:33.580Z,24.80
2018-05-09T11:57:01.851Z,24.60
2018-05-09T11:59:30.129Z,24.70
2018-05-09T12:01:58.406Z,24.90
2018-05-09T12:04:27.452Z,25.10
2018-05-09T12:06:56.482Z,25.00
2018-05-09T12:09:24.787Z,25.00
2018-05-09T12:11:53.039Z,24.70
2018-05-09T12:14:21.308Z,24.40
2018-05-09T12:16:49.577Z,24.20
2018-05-09T12:19:17.851Z,23.90
2018-05-09T12:21:46.099Z,23.80
2018-05-09T12:24:14.361Z,23.70
2018-05-09T12:26:43.394Z,23.50
2018-05-09T12:29:11.643Z,23.50
2018-05-09T12:31:39.919Z,23.60
2018-05-09T12:34:08.174Z,23.70
2018-05-09T12:36:36.517Z,23.70
2018-05-09T12:39:04.775Z,23.80
2018-05-09T12:41:33.028Z,24.00
2018-05-09T12:44:02.224Z,24.00
2018-05-09T12:46:30.491Z,24.10
2018-05-09T12:48:59.526Z,24.10
2018-05-09T12:51:27.775Z,24.10
2018-05-09T12:53:56.043Z,24.00
2018-05-09T12:56:25.068Z,24.00
2018-05-09T12:58:53.379Z,24.00
2018-05-09T13:01:21.635Z,24.00
2018-05-09T13:03:49.892Z,23.90
2018-05-09T13:06:18.147Z,23.80
2018-05-09T13:08:46.409Z,23.90
2018-05-09T13:11:15.445Z,24.10
2018-05-09T13:13:43.710Z,24.00
2018-05-09T13:16:11.995Z,23.90
2018-05-09T13:18:40.258Z,23.80
2018-05-09T13:21:08.548Z,23.90
2018-05-09T13:23:36.810Z,23.90
2018-05-09T13:26:05.082Z,23.90
2018-05-09T13:28:33.338Z,24.10
2018-05-09T13:31:02.392Z,24.50
2018-05-09T13:33:30.645Z,24.40
2018-05-09T13:35:58.931Z,24.60
2018-05-09T13:38:27.210Z,24.90
2018-05-09T13:40:55.465Z,25.10
2018-05-09T13:43:23.741Z,25.30
2018-05-09T13:45:51.993Z,25.20
2018-05-09T13:48:21.031Z,24.80
2018-05-09T13:50:49.288Z,24.80
2018-05-09T13:53:17.571Z,24.60
2018-05-09T13:55:45.830Z,24.40
2018-05-09T13:58:14.090Z,24.30
2018-05-09T14:00:43.164Z,24.20
2018-05-09T14:03:11.456Z,24.10
2018-05-09T14:05:40.523Z,23.80
2018-05-09T14:08:08.782Z,23.80
2018-05-09T14:10:37.111Z,23.70
2018-05-09T14:13:06.139Z,23.60
2018-05-09T14:15:34.492Z,23.60
2018-05-09T14:18:02.787Z,23.60
2018-05-09T14:20:31.069Z,23.70
2018-05-09T14:22:59.378Z,23.60
2018-05-09T14:25:27.622Z,23.70
2018-05-09T14:27:55.921Z,23.70
2018-05-09T14:30:24.165Z,23.80
2018-05-09T14:32:52.437Z,24.00
2018-05-09T14:35:20.714Z,24.30
2018-05-09T14:37:49.004Z,24.80
2018-05-09T14:40:17.255Z,24.90
2018-05-09T14:42:45.553Z,25.00
2018-05-09T14:45:13.853Z,25.20
2018-05-09T14:47:42.098Z,25.40
2018-05-09T14:50:10.665Z,25.50
2018-05-09T14:52:38.922Z,25.40
2018-05-09T14:55:07.182Z,25.20
2018-05-09T14:57:35.440Z,25.00
2018-05-09T15:00:03.700Z,24.80
2018-05-09T15:02:31.969Z,24.70
2018-05-09T15:05:00.239Z,24.50
2018-05-09T15:07:28.480Z,24.40
2018-05-09T15:09:57.541Z,24.20
2018-05-09T15:12:25.818Z,24.20
2018-05-09T15:14:54.101Z,24.20
2018-05-09T15:17:22.388Z,24.20
2018-05-09T15:19:50.674Z,24.30
2018-05-09T15:22:18.962Z,24.40
2018-05-09T15:24:47.193Z,24.40
2018-05-09T15:27:15.561Z,24.40
2018-05-09T15:29:43.842Z,24.50
2018-05-09T15:32:12.113Z,24.50
2018-05-09T15:34:40.422Z,24.70
2018-05-09T15:37:08.678Z,24.80
2018-05-09T15:39:37.723Z,24.70
2018-05-09T15:42:06.083Z,24.60
2018-05-09T15:44:34.334Z,24.50
2018-05-09T15:47:02.583Z,24.50
2018-05-09T15:49:30.873Z,24.40
2018-05-09T15:51:59.157Z,24.30
2018-05-09T15:54:27.414Z,24.10
2018-05-09T15:56:55.685Z,24.20
2018-05-09T15:59:23.978Z,24.10
2018-05-09T16:01:52.237Z,24.00
2018-05-09T16:04:20.491Z,23.90
2018-05-09T16:06:48.766Z,23.90
2018-05-09T16:09:17.042Z,23.90
2018-05-09T16:11:45.295Z,23.80
2018-05-09T16:14:14.369Z,23.80
2018-05-09T16:16:43.408Z,23.80
2018-05-09T16:19:11.798Z,23.80
2018-05-09T16:21:40.130Z,23.80
2018-05-09T16:24:08.438Z,23.90
2018-05-09T16:26:36.882Z,24.00
2018-05-09T16:29:05.267Z,23.90
2018-05-09T16:31:33.538Z,23.90
2018-05-09T16:34:01.809Z,23.90
2018-05-09T16:36:30.084Z,23.90
2018-05-09T16:38:58.314Z,23.90
2018-05-09T16:41:26.617Z,23.90
2018-05-09T16:43:54.850Z,24.00
2018-05-09T16:46:23.136Z,24.00
2018-05-09T16:48:51.403Z,24.10
2018-05-09T16:51:20.460Z,24.20
2018-05-09T16:53:48.850Z,24.20
2018-05-09T16:56:17.107Z,24.20
2018-05-09T16:58:45.388Z,24.10
2018-05-09T17:01:13.624Z,24.00
2018-05-09T17:03:41.893Z,24.00
2018-05-09T17:06:10.148Z,23.90
2018-05-09T17:08:38.422Z,24.00
2018-05-09T17:11:07.447Z,24.00
2018-05-09T17:13:35.720Z,24.00
2018-05-09T17:16:03.984Z,23.90
2018-05-09T17:18:33.006Z,24.00
2018-05-09T17:21:01.253Z,23.90
2018-05-09T17:23:30.295Z,24.00
2018-05-09T17:25:58.572Z,24.00
2018-05-09T17:28:26.828Z,24.00
2018-05-09T17:30:55.116Z,24.00
2018-05-09T17:33:23.384Z,23.90
2018-05-09T17:35:51.685Z,24.00
2018-05-09T17:38:19.927Z,23.80
2018-05-09T17:40:48.194Z,23.80
2018-05-09T17:43:16.434Z,23.80
2018-05-09T17:45:45.606Z,23.70
2018-05-09T17:48:13.876Z,23.70
2018-05-09T17:50:42.158Z,23.70
2018-05-09T17:53:10.407Z,23.80
2018-05-09T17:55:38.686Z,23.70
2018-05-09T17:58:06.939Z,23.80
2018-05-09T18:00:35.293Z,23.70
2018-05-09T18:03:03.539Z,23.70
2018-05-09T18:05:31.850Z,23.60
2018-05-09T18:08:00.106Z,23.50
2018-05-09T18:10:28.404Z,23.40
2018-05-09T18:12:57.429Z,23.30
2018-05-09T18:15:25.707Z,23.40
2018-05-09T18:17:53.971Z,23.30
2018-05-09T18:20:22.225Z,23.30
2018-05-09T18:22:51.298Z,23.10
2018-05-09T18:25:19.561Z,23.10
2018-05-09T18:27:47.796Z,23.10
2018-05-09T18:30:16.080Z,23.10
2018-05-09T18:32:44.377Z,23.00
2018-05-09T18:35:12.773Z,22.90
2018-05-09T18:37:41.026Z,22.80
2018-05-09T18:40:10.211Z,22.70
2018-05-09T18:42:39.235Z,22.50
2018-05-09T18:45:07.497Z,22.50
2018-05-09T18:47:35.759Z,22.40
2018-05-09T18:50:04.030Z,22.40
2018-05-09T18:52:32.314Z,22.30
2018-05-09T18:55:00.590Z,22.20
2018-05-09T18:57:28.847Z,22.10
2018-05-09T18:59:57.909Z,22.10
2018-05-09T19:02:26.175Z,22.00
2018-05-09T19:04:55.271Z,22.00
2018-05-09T19:07:23.559Z,22.00
2018-05-09T19:09:51.815Z,21.90
2018-05-09T19:12:20.070Z,21.90
2018-05-09T19:14:48.340Z,21.80
2018-05-09T19:17:16.622Z,21.80
2018-05-09T19:19:44.924Z,21.80
2018-05-09T19:22:13.190Z,21.90
2018-05-09T19:24:41.431Z,21.90
2018-05-09T19:27:09.703Z,21.90
2018-05-09T19:29:38.017Z,21.80
2018-05-09T19:32:06.290Z,21.70
2018-05-09T19:34:34.601Z,21.70
2018-05-09T19:37:02.851Z,21.70
2018-05-09T19:39:31.167Z,21.70
2018-05-09T19:42:00.221Z,21.70
2018-05-09T19:44:28.470Z,21.70
2018-05-09T19:46:56.788Z,21.70
2018-05-09T19:49:25.094Z,21.70
2018-05-09T19:51:54.981Z,21.70
2018-05-09T19:54:23.292Z,21.70
2018-05-09T19:56:52.314Z,21.70
2018-05-09T19:59:20.693Z,21.60
2018-05-09T20:01:49.003Z,21.70
2018-05-09T20:04:17.275Z,21.70
2018-05-09T20:06:45.527Z,21.60
2018-05-09T20:09:13.797Z,21.60
2018-05-09T20:11:42.072Z,21.60
2018-05-09T20:14:10.582Z,21.60
2018-05-09T20:16:38.964Z,21.50
2018-05-09T20:19:07.245Z,21.50
2018-05-09T20:21:35.522Z,21.30
2018-05-09T20:24:03.790Z,21.40
2018-05-09T20:26:32.237Z,21.40
2018-05-09T20:29:01.395Z,21.30
2018-05-09T20:32:01.602Z,21.40
2018-05-09T20:34:29.901Z,21.30
2018-05-09T20:36:59.023Z,21.30
2018-05-09T20:39:27.368Z,21.30
2018-05-09T20:41:55.685Z,21.30
2018-05-09T20:44:23.939Z,21.30
2018-05-09T20:46:52.994Z,21.20
2018-05-09T20:49:21.241Z,21.10
2018-05-09T20:51:51.542Z,21.10
2018-05-09T20:54:20.732Z,21.00
2018-05-09T20:56:49.931Z,21.10
2018-05-09T20:59:18.971Z,21.00
2018-05-09T21:01:49.002Z,21.00
2018-05-09T21:04:17.230Z,21.00
2018-05-09T21:06:45.530Z,21.00
2018-05-09T21:09:13.818Z,21.00
2018-05-09T21:14:41.848Z,21.00
2018-05-09T21:17:10.616Z,21.00
2018-05-09T21:19:38.856Z,21.10
2018-05-09T21:22:07.155Z,21.00
2018-05-09T21:24:35.452Z,21.00
2018-05-09T21:27:03.811Z,21.00
2018-05-09T21:29:32.050Z,21.00
2018-05-09T21:32:00.348Z,20.90
2018-05-09T21:34:28.594Z,20.80
2018-05-09T21:36:57.034Z,20.80
2018-05-09T21:39:25.287Z,20.90
2018-05-09T21:41:53.556Z,20.80
2018-05-09T21:44:21.808Z,20.80
2018-05-09T21:46:50.098Z,20.90
2018-05-09T21:49:18.362Z,20.90
2018-05-09T21:51:46.621Z,20.90
2018-05-09T21:54:14.913Z,20.90
2018-05-09T21:56:43.182Z,20.90
2018-05-09T21:59:11.608Z,20.80
2018-05-09T22:01:40.204Z,20.80
2018-05-09T22:04:08.487Z,20.80
2018-05-09T22:06:36.769Z,20.80
2018-05-09T22:09:05.823Z,20.90
2018-05-09T22:11:34.125Z,20.90
2018-05-09T22:14:02.418Z,20.90
2018-05-09T22:16:30.698Z,20.70
2018-05-09T22:18:59.740Z,20.60
2018-05-09T22:21:27.986Z,20.60
2018-05-09T22:23:57.004Z,20.60
2018-05-09T22:26:25.281Z,20.50
2018-05-09T22:28:53.541Z,20.60
2018-05-09T22:31:21.803Z,20.50
2018-05-09T22:33:50.814Z,20.50
2018-05-09T22:36:19.084Z,20.50
2018-05-09T22:38:47.362Z,20.50
2018-05-09T22:41:16.377Z,20.60
2018-05-09T22:43:44.668Z,20.60
2018-05-09T22:46:12.925Z,20.50
2018-05-09T22:48:41.290Z,20.50
2018-05-09T22:51:09.537Z,20.50
2018-05-09T22:53:38.583Z,20.50
2018-05-09T22:56:06.866Z,20.50
2018-05-09T22:58:35.140Z,20.50
2018-05-09T23:01:03.383Z,20.30
2018-05-09T23:03:32.194Z,20.20
2018-05-09T23:06:00.459Z,20.20
2018-05-09T23:08:29.489Z,20.10
2018-05-09T23:10:57.750Z,20.10
2018-05-09T23:13:26.046Z,20.20
2018-05-09T23:15:54.323Z,20.20
2018-05-09T23:18:22.554Z,20.20
2018-05-09T23:20:50.806Z,20.20
2018-05-09T23:23:19.834Z,20.10
2018-05-09T23:25:48.097Z,20.10
2018-05-09T23:28:16.365Z,20.10
2018-05-09T23:30:44.629Z,20.10
2018-05-09T23:33:12.874Z,20.10
2018-05-09T23:35:41.160Z,20.00
2018-05-09T23:38:09.564Z,20.00
2018-05-09T23:40:38.658Z,20.00
2018-05-09T23:43:06.955Z,20.00
2018-05-09T23:45:35.257Z,20.10
2018-05-09T23:48:03.757Z,20.20
2018-05-09T23:50:32.114Z,20.20
2018-05-09T23:53:00.475Z,20.10
2018-05-09T23:55:28.789Z,20.10
2018-05-09T23:57:57.205Z,20.10
